createdAt,value
2023-02-19T00:00:08.182Z,3.26
2023-02-19T00:03:19.006Z,3.20
2023-02-19T00:06:32.127Z,3.18
2023-02-19T00:09:37.626Z,3.29
2023-02-19T00:12:44.177Z,3.32
2023-02-19T00:15:49.742Z,3.16
2023-02-19T00:18:59.404Z,3.43
2023-02-19T00:22:07.960Z,3.57
2023-02-19T00:25:14.529Z,3.63
2023-02-19T00:28:20.141Z,3.66
2023-02-19T00:31:32.216Z,3.66
2023-02-19T00:34:39.137Z,3.72
2023-02-19T00:37:48.692Z,3.74
2023-02-19T00:40:54.903Z,3.68
2023-02-19T00:44:05.732Z,3.62
2023-02-19T00:47:11.468Z,3.61
2023-02-19T00:50:19.613Z,3.56
2023-02-19T00:53:27.887Z,3.54
2023-02-19T00:56:34.766Z,3.59
2023-02-19T00:59:40.251Z,3.50
2023-02-19T01:02:47.315Z,3.50
2023-02-19T01:05:53.079Z,3.50
2023-02-19T01:09:02.670Z,3.40
2023-02-19T01:12:08.847Z,3.40
2023-02-19T01:15:15.282Z,3.40
2023-02-19T01:18:21.003Z,3.51
2023-02-19T01:21:31.548Z,3.37
2023-02-19T01:24:40.773Z,-2.35
2023-02-19T01:27:47.461Z,3.43
2023-02-19T01:30:53.026Z,0.91
2023-02-19T01:34:04.685Z,3.18
2023-02-19T01:37:12.358Z,2.91
2023-02-19T01:40:22.462Z,3.31
2023-02-19T01:43:28.229Z,3.35
2023-02-19T01:46:36.276Z,3.26
2023-02-19T01:49:49.782Z,3.45
2023-02-19T01:52:56.155Z,3.37
2023-02-19T01:56:06.977Z,3.37
2023-02-19T01:59:14.456Z,3.43
2023-02-19T02:02:20.684Z,3.37
2023-02-19T02:05:45.407Z,3.44
2023-02-19T02:09:08.868Z,3.35
2023-02-19T02:12:18.238Z,3.27
2023-02-19T02:15:24.321Z,3.30
2023-02-19T02:18:55.330Z,3.29
2023-02-19T02:22:14.693Z,3.29
2023-02-19T02:25:47.103Z,3.32
2023-02-19T02:29:41.938Z,3.28
2023-02-19T02:33:04.984Z,2.04
2023-02-19T02:36:20.044Z,3.26
2023-02-19T02:39:31.116Z,3.34
2023-02-19T02:42:43.747Z,3.29
2023-02-19T02:45:52.219Z,3.45
2023-02-19T02:49:16.400Z,3.30
2023-02-19T02:52:35.400Z,3.38
2023-02-19T02:55:48.729Z,3.41
2023-02-19T02:59:00.471Z,3.04
2023-02-19T03:02:11.683Z,3.32
2023-02-19T03:05:43.438Z,3.38
2023-02-19T03:09:00.509Z,3.39
2023-02-19T03:12:28.758Z,3.46
2023-02-19T03:16:15.337Z,3.34
2023-02-19T03:19:28.013Z,3.24
2023-02-19T03:22:43.777Z,3.03
2023-02-19T03:26:04.479Z,3.10
2023-02-19T03:29:28.078Z,3.02
2023-02-19T03:32:50.552Z,2.95
2023-02-19T03:36:05.212Z,2.81
2023-02-19T03:39:23.384Z,2.94
2023-02-19T03:42:45.235Z,2.95
2023-02-19T03:46:10.874Z,2.87
2023-02-19T03:49:30.271Z,2.89
2023-02-19T03:52:57.056Z,2.85
2023-02-19T03:56:17.620Z,2.79
2023-02-19T03:59:38.093Z,2.83
2023-02-19T04:02:59.754Z,2.99
2023-02-19T04:06:13.565Z,2.97
2023-02-19T04:09:24.372Z,3.05
2023-02-19T04:12:47.844Z,3.12
2023-02-19T04:16:01.190Z,3.25
2023-02-19T04:19:15.434Z,3.01
2023-02-19T04:22:25.703Z,3.29
2023-02-19T04:25:34.306Z,3.03
2023-02-19T04:28:46.092Z,3.45
2023-02-19T04:31:51.799Z,3.56
2023-02-19T04:34:58.125Z,3.22
2023-02-19T04:38:04.426Z,3.60
2023-02-19T04:41:12.028Z,3.63
2023-02-19T04:44:20.456Z,3.62
2023-02-19T04:47:26.792Z,3.61
2023-02-19T04:50:32.217Z,3.66
2023-02-19T04:53:40.341Z,3.59
2023-02-19T04:56:45.818Z,3.66
2023-02-19T04:59:55.125Z,3.71
2023-02-19T05:03:00.495Z,3.66
2023-02-19T05:06:09.924Z,3.64
2023-02-19T05:09:15.498Z,3.71
2023-02-19T05:12:22.009Z,3.66
2023-02-19T05:15:30.147Z,3.77
2023-02-19T05:18:37.713Z,3.74
2023-02-19T05:21:43.408Z,3.74
2023-02-19T05:24:50.085Z,3.76
2023-02-19T05:28:16.128Z,3.76
2023-02-19T05:31:25.660Z,3.79
2023-02-19T05:34:31.288Z,3.83
2023-02-19T05:37:37.586Z,3.90
2023-02-19T05:40:44.760Z,3.85
2023-02-19T05:43:54.188Z,3.60
2023-02-19T05:47:02.417Z,3.64
2023-02-19T05:50:09.985Z,3.46
2023-02-19T05:53:16.099Z,3.22
2023-02-19T05:56:43.874Z,3.34
2023-02-19T05:59:49.307Z,3.25
2023-02-19T06:02:59.358Z,3.02
2023-02-19T06:06:07.256Z,3.30
2023-02-19T06:09:14.496Z,3.15
2023-02-19T06:12:20.176Z,3.29
2023-02-19T06:15:26.706Z,3.34
2023-02-19T06:18:34.997Z,3.23
2023-02-19T06:21:41.709Z,3.37
2023-02-19T06:24:47.127Z,3.37
2023-02-19T06:27:53.400Z,3.39
2023-02-19T06:30:58.820Z,3.34
2023-02-19T06:34:09.824Z,3.35
2023-02-19T06:37:15.322Z,3.32
2023-02-19T06:40:21.987Z,3.31
2023-02-19T06:43:27.378Z,3.44
2023-02-19T06:46:34.336Z,3.49
2023-02-19T06:49:43.179Z,3.56
2023-02-19T06:52:49.405Z,3.57
2023-02-19T06:56:01.562Z,3.62
2023-02-19T06:59:11.364Z,3.72
2023-02-19T07:02:17.118Z,3.69
2023-02-19T07:05:26.838Z,3.76
2023-02-19T07:08:32.475Z,3.76
2023-02-19T07:11:42.669Z,3.79
2023-02-19T07:14:48.326Z,3.81
2023-02-19T07:17:54.632Z,3.82
2023-02-19T07:21:10.439Z,3.77
2023-02-19T07:24:16.989Z,3.79
2023-02-19T07:27:22.800Z,3.77
2023-02-19T07:30:29.533Z,3.74
2023-02-19T07:33:35.219Z,3.64
2023-02-19T07:36:44.612Z,3.68
2023-02-19T07:39:50.093Z,3.68
2023-02-19T07:42:56.930Z,3.68
2023-02-19T07:46:05.386Z,3.74
2023-02-19T07:49:11.724Z,3.84
2023-02-19T07:52:19.881Z,3.87
2023-02-19T07:55:26.179Z,3.93
2023-02-19T07:58:32.253Z,4.00
2023-02-19T08:01:55.019Z,3.93
2023-02-19T08:05:01.074Z,4.05
2023-02-19T08:08:12.403Z,4.12
2023-02-19T08:11:33.784Z,4.08
2023-02-19T08:14:40.163Z,4.26
2023-02-19T08:17:45.918Z,4.27
2023-02-19T08:20:52.498Z,4.23
2023-02-19T08:24:00.801Z,4.12
2023-02-19T08:27:13.685Z,4.20
2023-02-19T08:30:19.312Z,4.23
2023-02-19T08:33:26.056Z,4.20
2023-02-19T08:36:31.544Z,4.11
2023-02-19T08:39:40.563Z,4.02
2023-02-19T08:42:46.636Z,4.04
2023-02-19T08:45:58.502Z,3.94
2023-02-19T08:49:03.989Z,3.76
2023-02-19T08:52:10.240Z,3.73
2023-02-19T08:55:18.866Z,3.58
2023-02-19T08:58:26.476Z,3.71
2023-02-19T09:01:32.157Z,3.78
2023-02-19T09:04:39.415Z,3.71
2023-02-19T09:07:45.693Z,3.68
2023-02-19T09:11:04.990Z,3.88
2023-02-19T09:14:10.538Z,3.74
2023-02-19T09:17:16.826Z,3.78
2023-02-19T09:20:23.107Z,3.72
2023-02-19T09:23:29.407Z,3.74
2023-02-19T09:26:38.634Z,3.60
2023-02-19T09:29:45.336Z,3.70
2023-02-19T09:32:51.050Z,3.64
2023-02-19T09:35:57.634Z,3.58
2023-02-19T09:39:04.817Z,3.34
2023-02-19T09:42:22.610Z,3.14
2023-02-19T09:45:30.424Z,3.20
2023-02-19T09:48:36.750Z,3.27
2023-02-19T09:51:49.566Z,3.15
2023-02-19T09:54:59.636Z,3.05
2023-02-19T09:58:30.180Z,3.02
2023-02-19T10:01:43.690Z,2.75
2023-02-19T10:04:53.095Z,2.55
2023-02-19T10:08:01.854Z,2.83
2023-02-19T10:11:10.035Z,2.81
2023-02-19T10:14:33.013Z,2.79
2023-02-19T10:17:38.681Z,2.76
2023-02-19T10:20:45.168Z,2.60
2023-02-19T10:23:57.106Z,2.45
2023-02-19T10:27:03.999Z,2.45
2023-02-19T10:30:25.836Z,2.32
2023-02-19T10:33:33.375Z,2.20
2023-02-19T10:36:45.506Z,2.22
2023-02-19T10:39:54.347Z,2.19
2023-02-19T10:43:04.820Z,2.27
2023-02-19T10:46:25.072Z,2.28
2023-02-19T10:49:37.542Z,2.35
2023-02-19T10:52:44.083Z,2.39
2023-02-19T10:55:49.758Z,2.40
2023-02-19T10:58:56.278Z,2.37
2023-02-19T11:02:20.201Z,2.15
2023-02-19T11:05:27.019Z,2.22
2023-02-19T11:08:37.577Z,2.12
2023-02-19T11:11:44.276Z,2.11
2023-02-19T11:14:50.157Z,2.00
2023-02-19T11:18:18.433Z,1.91
2023-02-19T11:21:33.279Z,1.99
2023-02-19T11:24:42.106Z,2.01
2023-02-19T11:28:05.135Z,1.68
2023-02-19T11:31:28.018Z,1.98
2023-02-19T11:34:36.358Z,2.00
2023-02-19T11:38:02.582Z,1.97
2023-02-19T11:41:23.928Z,1.99
2023-02-19T11:44:53.750Z,1.92
2023-02-19T11:48:30.412Z,1.92
2023-02-19T11:52:14.502Z,1.99
2023-02-19T11:55:46.448Z,1.87
2023-02-19T11:59:05.154Z,1.42
2023-02-19T12:02:57.815Z,1.94
2023-02-19T12:06:26.203Z,1.86
2023-02-19T12:10:01.317Z,1.85
2023-02-19T12:13:27.414Z,1.93
2023-02-19T12:16:46.053Z,1.93
2023-02-19T12:20:20.962Z,1.76
2023-02-19T12:23:59.613Z,1.66
2023-02-19T12:27:31.430Z,1.55
2023-02-19T12:31:06.566Z,1.58
2023-02-19T12:35:03.180Z,1.55
2023-02-19T12:38:26.332Z,1.54
2023-02-19T12:41:52.053Z,1.49
2023-02-19T12:45:13.840Z,1.42
2023-02-19T12:48:36.143Z,1.31
2023-02-19T12:51:50.350Z,1.03
2023-02-19T12:55:04.634Z,1.05
2023-02-19T12:58:22.724Z,1.06
2023-02-19T13:01:42.744Z,0.99
2023-02-19T13:05:02.502Z,0.73
2023-02-19T13:08:23.855Z,0.90
2023-02-19T13:11:39.921Z,0.36
2023-02-19T13:14:55.147Z,0.99
2023-02-19T13:18:08.546Z,0.81
2023-02-19T13:21:39.628Z,0.76
2023-02-19T13:24:47.173Z,0.71
2023-02-19T13:28:22.741Z,0.81
2023-02-19T13:32:01.693Z,0.94
2023-02-19T13:35:36.676Z,0.80
2023-02-19T13:38:47.062Z,0.79
2023-02-19T13:41:59.426Z,0.74
2023-02-19T13:45:09.419Z,0.82
2023-02-19T13:48:31.608Z,0.84
2023-02-19T13:52:07.429Z,1.02
2023-02-19T13:55:53.240Z,0.94
2023-02-19T13:59:03.065Z,0.78
2023-02-19T14:02:38.222Z,0.84
2023-02-19T14:06:06.698Z,0.93
2023-02-19T14:09:48.719Z,0.96
2023-02-19T14:12:54.622Z,0.83
2023-02-19T14:16:01.108Z,0.99
2023-02-19T14:19:15.849Z,1.01
2023-02-19T14:23:04.389Z,1.02
2023-02-19T14:26:13.659Z,1.09
2023-02-19T14:29:21.714Z,1.07
2023-02-19T14:32:28.519Z,1.18
2023-02-19T14:35:43.462Z,1.15
2023-02-19T14:38:56.399Z,1.07
2023-02-19T14:42:10.840Z,1.08
2023-02-19T14:45:23.599Z,0.96
2023-02-19T14:48:37.894Z,0.99
2023-02-19T14:51:51.520Z,0.99
2023-02-19T14:55:04.370Z,0.97
2023-02-19T14:58:22.539Z,1.01
2023-02-19T15:01:30.079Z,1.11
2023-02-19T15:04:40.537Z,1.09
2023-02-19T15:07:48.334Z,1.12
2023-02-19T15:10:53.957Z,1.09
2023-02-19T15:14:09.152Z,0.94
2023-02-19T15:17:27.588Z,0.88
2023-02-19T15:20:40.236Z,0.87
2023-02-19T15:23:45.861Z,0.87
2023-02-19T15:26:56.291Z,0.89
2023-02-19T15:30:04.871Z,0.72
2023-02-19T15:33:22.315Z,0.67
2023-02-19T15:36:34.639Z,0.78
2023-02-19T15:39:47.594Z,0.72
2023-02-19T15:42:53.369Z,0.58
2023-02-19T15:46:12.783Z,0.65
2023-02-19T15:49:31.197Z,0.74
2023-02-19T15:52:51.696Z,0.57
2023-02-19T15:56:10.345Z,0.51
2023-02-19T15:59:30.666Z,0.55
2023-02-19T16:02:40.022Z,0.69
2023-02-19T16:05:46.692Z,0.64
2023-02-19T16:09:06.005Z,0.66
2023-02-19T16:12:25.361Z,0.57
2023-02-19T16:15:33.258Z,0.66
2023-02-19T16:18:49.761Z,0.65
2023-02-19T16:21:57.157Z,0.65
2023-02-19T16:25:08.676Z,0.11
2023-02-19T16:28:17.699Z,0.62
2023-02-19T16:31:27.097Z,0.64
2023-02-19T16:34:47.095Z,0.73
2023-02-19T16:38:02.639Z,0.71
2023-02-19T16:41:19.233Z,0.66
2023-02-19T16:44:37.741Z,0.63
2023-02-19T16:47:48.479Z,0.55
2023-02-19T16:50:57.711Z,0.56
2023-02-19T16:54:03.255Z,0.40
2023-02-19T16:57:10.816Z,0.55
2023-02-19T17:00:22.204Z,0.55
2023-02-19T17:03:29.649Z,0.54
2023-02-19T17:06:39.657Z,0.44
2023-02-19T17:09:46.952Z,0.48
2023-02-19T17:12:53.310Z,0.34
2023-02-19T17:16:00.037Z,0.51
2023-02-19T17:19:07.628Z,0.21
2023-02-19T17:22:17.942Z,0.39
2023-02-19T17:25:24.479Z,0.47
2023-02-19T17:28:30.881Z,0.35
2023-02-19T17:31:36.849Z,0.22
2023-02-19T17:34:43.244Z,0.04
2023-02-19T17:37:53.377Z,0.05
2023-02-19T17:40:59.905Z,-0.13
2023-02-19T17:44:05.357Z,-0.14
2023-02-19T17:47:11.711Z,-0.03
2023-02-19T17:50:21.163Z,-0.05
2023-02-19T17:53:30.425Z,-0.17
2023-02-19T17:56:36.034Z,-0.19
2023-02-19T17:59:42.299Z,-0.12
2023-02-19T18:02:47.995Z,-0.10
2023-02-19T18:05:54.775Z,0.02
2023-02-19T18:09:03.045Z,-0.08
2023-02-19T18:12:10.320Z,0.03
2023-02-19T18:15:22.485Z,-0.08
2023-02-19T18:18:28.797Z,0.00
2023-02-19T18:21:34.312Z,-0.03
2023-02-19T18:24:49.983Z,-0.14
2023-02-19T18:27:56.191Z,-0.03
2023-02-19T18:31:02.706Z,-0.12
2023-02-19T18:34:08.908Z,-0.18
2023-02-19T18:37:15.309Z,-0.22
2023-02-19T18:40:26.048Z,-0.24
2023-02-19T18:43:32.421Z,-0.21
2023-02-19T18:46:37.867Z,-0.47
2023-02-19T18:49:48.843Z,-0.54
2023-02-19T18:52:54.583Z,-0.47
2023-02-19T18:56:05.547Z,-0.40
2023-02-19T18:59:11.191Z,-0.45
2023-02-19T19:02:17.991Z,-0.44
2023-02-19T19:05:24.825Z,-0.85
2023-02-19T19:08:31.223Z,-0.54
2023-02-19T19:11:41.463Z,-0.79
2023-02-19T19:14:48.956Z,-0.80
2023-02-19T19:17:55.178Z,-0.68
2023-02-19T19:21:03.654Z,-0.82
2023-02-19T19:24:10.004Z,-0.88
2023-02-19T19:27:22.635Z,-0.97
2023-02-19T19:30:28.933Z,-0.96
2023-02-19T19:33:35.419Z,-0.83
2023-02-19T19:36:41.153Z,-0.79
2023-02-19T19:39:47.527Z,-0.76
2023-02-19T19:42:57.603Z,-0.82
2023-02-19T19:46:08.912Z,-0.85
2023-02-19T19:49:14.672Z,-0.78
2023-02-19T19:52:21.262Z,-0.86
2023-02-19T19:55:27.238Z,-0.78
2023-02-19T19:58:37.577Z,-0.92
2023-02-19T20:01:51.952Z,-0.89
2023-02-19T20:04:58.717Z,-1.01
2023-02-19T20:08:04.496Z,-0.97
2023-02-19T20:11:11.300Z,-1.06
2023-02-19T20:14:22.527Z,-1.15
2023-02-19T20:17:29.309Z,-1.05
2023-02-19T20:20:34.906Z,-1.07
2023-02-19T20:23:42.425Z,-1.03
2023-02-19T20:26:48.258Z,-1.15
2023-02-19T20:29:57.687Z,-1.19
2023-02-19T20:33:03.468Z,-1.10
2023-02-19T20:36:12.187Z,-1.10
2023-02-19T20:39:19.000Z,-1.08
2023-02-19T20:42:25.358Z,-0.94
2023-02-19T20:45:34.162Z,-0.88
2023-02-19T20:48:40.635Z,-0.87
2023-02-19T20:51:48.508Z,-0.95
2023-02-19T20:54:58.863Z,-1.02
2023-02-19T20:58:04.339Z,-1.05
2023-02-19T21:01:14.733Z,-0.99
2023-02-19T21:04:20.733Z,-1.03
2023-02-19T21:07:28.439Z,-1.02
2023-02-19T21:10:35.142Z,-1.20
2023-02-19T21:13:46.126Z,-1.31
2023-02-19T21:16:54.407Z,-1.20
2023-02-19T21:20:01.089Z,-1.15
2023-02-19T21:23:07.144Z,-1.27
2023-02-19T21:26:13.893Z,-1.12
2023-02-19T21:29:23.536Z,-1.19
2023-02-19T21:32:32.695Z,-1.21
2023-02-19T21:35:38.126Z,-1.20
2023-02-19T21:38:44.520Z,-1.18
2023-02-19T21:41:50.860Z,-1.29
2023-02-19T21:44:57.192Z,-1.29
2023-02-19T21:48:05.688Z,-1.48
2023-02-19T21:51:12.001Z,-1.37
2023-02-19T21:54:21.290Z,-1.38
2023-02-19T21:57:27.745Z,-1.32
2023-02-19T22:00:34.094Z,-1.34
2023-02-19T22:03:43.739Z,-1.34
2023-02-19T22:06:49.545Z,-1.35
2023-02-19T22:09:55.986Z,-1.37
2023-02-19T22:13:01.458Z,-1.39
2023-02-19T22:16:08.372Z,-1.38
2023-02-19T22:19:17.112Z,-1.42
2023-02-19T22:22:23.620Z,-1.36
2023-02-19T22:25:29.151Z,-1.42
2023-02-19T22:28:35.488Z,-1.40
2023-02-19T22:31:41.079Z,-1.50
2023-02-19T22:34:50.521Z,-1.52
2023-02-19T22:37:56.185Z,-1.55
2023-02-19T22:41:02.643Z,-1.52
2023-02-19T22:44:08.602Z,-1.56
2023-02-19T22:47:14.851Z,-1.59
2023-02-19T22:50:26.627Z,-1.56
2023-02-19T22:53:32.925Z,-1.61
2023-02-19T22:56:38.329Z,-1.65
2023-02-19T22:59:44.673Z,-1.68
2023-02-19T23:02:51.015Z,-1.71
2023-02-19T23:06:00.352Z,-1.67
2023-02-19T23:09:11.048Z,-1.62
2023-02-19T23:12:17.500Z,-1.56
2023-02-19T23:15:23.124Z,-1.57
2023-02-19T23:18:29.964Z,-1.56
2023-02-19T23:21:38.431Z,-1.49
2023-02-19T23:24:45.039Z,-1.60
2023-02-19T23:27:50.377Z,-1.52
2023-02-19T23:30:56.920Z,-1.42
2023-02-19T23:34:02.372Z,-1.34
2023-02-19T23:37:11.655Z,-1.39
2023-02-19T23:40:17.642Z,-1.38
2023-02-19T23:43:24.379Z,-1.33
2023-02-19T23:46:29.858Z,-1.49
2023-02-19T23:49:36.219Z,-1.45
2023-02-19T23:52:44.696Z,-1.50
2023-02-19T23:55:51.840Z,-1.46
2023-02-19T23:58:57.794Z,-1.47
